sensor_id;sensor_type;location;lat;lon;timestamp;P1;durP1;ratioP1;P2;durP2;ratioP2
3601;SDS011;1815;50.950;6.920;2022-09-23T00:01:52;2.80;;;1.50;;
3601;SDS011;1815;50.950;6.920;2022-09-23T00:04:19;2.63;;;1.50;;
3601;SDS011;1815;50.950;6.920;2022-09-23T00:06:45;5.47;;;1.80;;
3601;SDS011;1815;50.950;6.920;2022-09-23T00:09:10;2.80;;;1.40;;
3601;SDS011;1815;50.950;6.920;2022-09-23T00:11:36;2.73;;;1.43;;
3601;SDS011;1815;50.950;6.920;2022-09-23T00:14:02;2.53;;;1.33;;
3601;SDS011;1815;50.950;6.920;2022-09-23T00:16:32;2.28;;;1.20;;
3601;SDS011;1815;50.950;6.920;2022-09-23T00:18:59;2.17;;;1.10;;
3601;SDS011;1815;50.950;6.920;2022-09-23T00:21:27;5.53;;;1.70;;
3601;SDS011;1815;50.950;6.920;2022-09-23T00:23:53;2.05;;;1.15;;
3601;SDS011;1815;50.950;6.920;2022-09-23T00:26:20;4.00;;;1.40;;
3601;SDS011;1815;50.950;6.920;2022-09-23T00:28:47;3.67;;;1.60;;
3601;SDS011;1815;50.950;6.920;2022-09-23T00:31:15;5.43;;;1.70;;
3601;SDS011;1815;50.950;6.920;2022-09-23T00:33:45;2.63;;;1.35;;
3601;SDS011;1815;50.950;6.920;2022-09-23T00:36:14;3.50;;;1.57;;
3601;SDS011;1815;50.950;6.920;2022-09-23T00:38:40;1.90;;;1.10;;
3601;SDS011;1815;50.950;6.920;2022-09-23T00:41:07;2.25;;;1.13;;
3601;SDS011;1815;50.950;6.920;2022-09-23T00:46:36;2.50;;;1.42;;
3601;SDS011;1815;50.950;6.920;2022-09-23T00:49:07;2.05;;;1.23;;
3601;SDS011;1815;50.950;6.920;2022-09-23T00:51:46;3.80;;;1.75;;
3601;SDS011;1815;50.950;6.920;2022-09-23T00:54:18;2.58;;;1.40;;
3601;SDS011;1815;50.950;6.920;2022-09-23T00:56:46;2.00;;;1.13;;
3601;SDS011;1815;50.950;6.920;2022-09-23T00:59:12;2.30;;;1.20;;
3601;SDS011;1815;50.950;6.920;2022-09-23T01:01:38;3.55;;;1.25;;
3601;SDS011;1815;50.950;6.920;2022-09-23T01:04:04;2.05;;;1.42;;
3601;SDS011;1815;50.950;6.920;2022-09-23T01:06:31;3.13;;;1.50;;
3601;SDS011;1815;50.950;6.920;2022-09-23T01:08:57;3.93;;;1.97;;
3601;SDS011;1815;50.950;6.920;2022-09-23T01:11:35;3.47;;;1.57;;
3601;SDS011;1815;50.950;6.920;2022-09-23T01:14:30;2.30;;;1.23;;
3601;SDS011;1815;50.950;6.920;2022-09-23T01:32:15;3.05;;;1.58;;
3601;SDS011;1815;50.950;6.920;2022-09-23T01:35:02;2.15;;;1.38;;
3601;SDS011;1815;50.950;6.920;2022-09-23T01:38:39;2.67;;;1.08;;
3601;SDS011;1815;50.950;6.920;2022-09-23T01:46:26;2.67;;;1.15;;
3601;SDS011;1815;50.950;6.920;2022-09-23T01:51:49;2.25;;;1.20;;
3601;SDS011;1815;50.950;6.920;2022-09-23T01:54:27;4.38;;;1.60;;
3601;SDS011;1815;50.950;6.920;2022-09-23T01:57:01;2.97;;;1.33;;
3601;SDS011;1815;50.950;6.920;2022-09-23T01:59:31;3.88;;;1.40;;
3601;SDS011;1815;50.950;6.920;2022-09-23T02:02:12;3.67;;;1.30;;
3601;SDS011;1815;50.950;6.920;2022-09-23T02:04:44;3.45;;;1.55;;
3601;SDS011;1815;50.950;6.920;2022-09-23T02:10:34;2.38;;;1.40;;
3601;SDS011;1815;50.950;6.920;2022-09-23T02:12:49;3.45;;;1.55;;
3601;SDS011;1815;50.950;6.920;2022-09-23T02:15:19;2.92;;;1.67;;
3601;SDS011;1815;50.950;6.920;2022-09-23T02:17:50;2.50;;;1.60;;
3601;SDS011;1815;50.950;6.920;2022-09-23T02:20:23;2.95;;;1.17;;
3601;SDS011;1815;50.950;6.920;2022-09-23T02:23:02;2.15;;;1.55;;
3601;SDS011;1815;50.950;6.920;2022-09-23T02:25:39;3.30;;;1.40;;
3601;SDS011;1815;50.950;6.920;2022-09-23T02:29:23;2.10;;;1.30;;
3601;SDS011;1815;50.950;6.920;2022-09-23T02:31:25;3.65;;;1.48;;
3601;SDS011;1815;50.950;6.920;2022-09-23T02:33:54;2.65;;;1.30;;
3601;SDS011;1815;50.950;6.920;2022-09-23T02:36:31;5.60;;;1.70;;
3601;SDS011;1815;50.950;6.920;2022-09-23T02:39:22;2.10;;;1.10;;
3601;SDS011;1815;50.950;6.920;2022-09-23T02:44:21;2.20;;;1.58;;
3601;SDS011;1815;50.950;6.920;2022-09-23T02:46:48;3.38;;;1.10;;
3601;SDS011;1815;50.950;6.920;2022-09-23T02:49:22;5.22;;;1.60;;
3601;SDS011;1815;50.950;6.920;2022-09-23T02:51:49;2.70;;;1.10;;
3601;SDS011;1815;50.950;6.920;2022-09-23T02:54:17;4.13;;;1.67;;
3601;SDS011;1815;50.950;6.920;2022-09-23T02:56:44;3.40;;;1.50;;
3601;SDS011;1815;50.950;6.920;2022-09-23T02:59:12;2.85;;;1.90;;
3601;SDS011;1815;50.950;6.920;2022-09-23T03:17:50;3.35;;;1.45;;
3601;SDS011;1815;50.950;6.920;2022-09-23T03:20:29;2.20;;;1.25;;
3601;SDS011;1815;50.950;6.920;2022-09-23T03:23:02;2.83;;;1.38;;
3601;SDS011;1815;50.950;6.920;2022-09-23T03:25:32;2.97;;;1.50;;
3601;SDS011;1815;50.950;6.920;2022-09-23T03:28:02;3.03;;;1.70;;
3601;SDS011;1815;50.950;6.920;2022-09-23T03:30:31;2.70;;;1.17;;
3601;SDS011;1815;50.950;6.920;2022-09-23T03:32:59;2.10;;;1.60;;
3601;SDS011;1815;50.950;6.920;2022-09-23T03:35:29;3.80;;;1.50;;
3601;SDS011;1815;50.950;6.920;2022-09-23T03:38:05;2.78;;;1.20;;
3601;SDS011;1815;50.950;6.920;2022-09-23T03:40:40;2.67;;;1.33;;
3601;SDS011;1815;50.950;6.920;2022-09-23T03:43:11;3.83;;;2.05;;
3601;SDS011;1815;50.950;6.920;2022-09-23T03:45:38;3.65;;;1.83;;
3601;SDS011;1815;50.950;6.920;2022-09-23T03:48:06;2.88;;;1.40;;
3601;SDS011;1815;50.950;6.920;2022-09-23T03:50:32;2.88;;;1.52;;
3601;SDS011;1815;50.950;6.920;2022-09-23T03:53:00;3.45;;;2.00;;
3601;SDS011;1815;50.950;6.920;2022-09-23T03:55:26;2.35;;;1.33;;
3601;SDS011;1815;50.950;6.920;2022-09-23T03:57:52;3.47;;;1.90;;
3601;SDS011;1815;50.950;6.920;2022-09-23T04:00:18;3.28;;;1.60;;
3601;SDS011;1815;50.950;6.920;2022-09-23T04:02:43;2.50;;;1.63;;
3601;SDS011;1815;50.950;6.920;2022-09-23T04:05:10;4.77;;;2.43;;
3601;SDS011;1815;50.950;6.920;2022-09-23T04:07:36;3.10;;;1.42;;
3601;SDS011;1815;50.950;6.920;2022-09-23T04:10:03;6.60;;;2.33;;
3601;SDS011;1815;50.950;6.920;2022-09-23T04:12:29;3.28;;;1.80;;
3601;SDS011;1815;50.950;6.920;2022-09-23T04:14:55;3.90;;;1.53;;
3601;SDS011;1815;50.950;6.920;2022-09-23T04:17:20;4.30;;;1.60;;
3601;SDS011;1815;50.950;6.920;2022-09-23T04:19:46;3.23;;;1.70;;
3601;SDS011;1815;50.950;6.920;2022-09-23T04:22:12;2.10;;;1.10;;
3601;SDS011;1815;50.950;6.920;2022-09-23T04:24:38;3.27;;;1.67;;
3601;SDS011;1815;50.950;6.920;2022-09-23T04:27:03;3.10;;;2.07;;
3601;SDS011;1815;50.950;6.920;2022-09-23T04:29:29;4.63;;;1.47;;
3601;SDS011;1815;50.950;6.920;2022-09-23T04:31:55;2.93;;;1.83;;
3601;SDS011;1815;50.950;6.920;2022-09-23T04:34:21;2.92;;;1.67;;
3601;SDS011;1815;50.950;6.920;2022-09-23T04:36:47;3.13;;;1.70;;
3601;SDS011;1815;50.950;6.920;2022-09-23T04:39:15;4.18;;;2.03;;
3601;SDS011;1815;50.950;6.920;2022-09-23T04:41:44;4.13;;;1.92;;
3601;SDS011;1815;50.950;6.920;2022-09-23T04:44:11;6.03;;;2.38;;
3601;SDS011;1815;50.950;6.920;2022-09-23T04:46:37;2.92;;;1.90;;
3601;SDS011;1815;50.950;6.920;2022-09-23T04:49:05;2.97;;;1.77;;
3601;SDS011;1815;50.950;6.920;2022-09-23T04:51:31;3.83;;;1.98;;
3601;SDS011;1815;50.950;6.920;2022-09-23T04:53:57;3.08;;;1.77;;
3601;SDS011;1815;50.950;6.920;2022-09-23T04:56:24;2.10;;;1.40;;
3601;SDS011;1815;50.950;6.920;2022-09-23T04:58:51;3.47;;;1.48;;
3601;SDS011;1815;50.950;6.920;2022-09-23T05:01:21;2.20;;;1.33;;
3601;SDS011;1815;50.950;6.920;2022-09-23T05:03:51;3.28;;;1.80;;
3601;SDS011;1815;50.950;6.920;2022-09-23T05:06:18;4.60;;;1.55;;
3601;SDS011;1815;50.950;6.920;2022-09-23T05:08:49;2.63;;;1.30;;
3601;SDS011;1815;50.950;6.920;2022-09-23T05:11:16;4.18;;;1.55;;
3601;SDS011;1815;50.950;6.920;2022-09-23T05:13:46;2.20;;;1.50;;
3601;SDS011;1815;50.950;6.920;2022-09-23T05:16:12;4.63;;;1.83;;
3601;SDS011;1815;50.950;6.920;2022-09-23T05:18:39;3.33;;;1.63;;
3601;SDS011;1815;50.950;6.920;2022-09-23T05:21:10;3.25;;;1.95;;
3601;SDS011;1815;50.950;6.920;2022-09-23T05:23:38;4.00;;;1.55;;
3601;SDS011;1815;50.950;6.920;2022-09-23T05:26:11;2.97;;;1.67;;
3601;SDS011;1815;50.950;6.920;2022-09-23T05:28:37;2.20;;;1.73;;
3601;SDS011;1815;50.950;6.920;2022-09-23T05:31:05;2.72;;;1.73;;
3601;SDS011;1815;50.950;6.920;2022-09-23T05:33:40;2.67;;;1.63;;
3601;SDS011;1815;50.950;6.920;2022-09-23T05:36:16;2.50;;;1.30;;
3601;SDS011;1815;50.950;6.920;2022-09-23T05:38:44;3.53;;;1.67;;
3601;SDS011;1815;50.950;6.920;2022-09-23T05:41:10;3.80;;;2.03;;
3601;SDS011;1815;50.950;6.920;2022-09-23T05:43:37;3.28;;;1.90;;
3601;SDS011;1815;50.950;6.920;2022-09-23T05:46:11;2.95;;;1.95;;
3601;SDS011;1815;50.950;6.920;2022-09-23T05:48:54;3.42;;;2.15;;
3601;SDS011;1815;50.950;6.920;2022-09-23T05:51:22;4.18;;;2.38;;
3601;SDS011;1815;50.950;6.920;2022-09-23T05:53:49;3.88;;;2.20;;
3601;SDS011;1815;50.950;6.920;2022-09-23T05:56:17;3.45;;;2.30;;
3601;SDS011;1815;50.950;6.920;2022-09-23T05:58:48;4.47;;;2.05;;
3601;SDS011;1815;50.950;6.920;2022-09-23T06:01:18;3.70;;;2.00;;
3601;SDS011;1815;50.950;6.920;2022-09-23T06:03:46;3.45;;;1.95;;
3601;SDS011;1815;50.950;6.920;2022-09-23T06:06:12;2.72;;;1.85;;
3601;SDS011;1815;50.950;6.920;2022-09-23T06:08:40;2.55;;;1.67;;
3601;SDS011;1815;50.950;6.920;2022-09-23T06:11:06;4.22;;;2.38;;
3601;SDS011;1815;50.950;6.920;2022-09-23T06:13:33;3.53;;;2.30;;
3601;SDS011;1815;50.950;6.920;2022-09-23T06:16:03;3.40;;;2.25;;
3601;SDS011;1815;50.950;6.920;2022-09-23T06:18:33;5.03;;;2.15;;
3601;SDS011;1815;50.950;6.920;2022-09-23T06:21:00;3.10;;;1.83;;
3601;SDS011;1815;50.950;6.920;2022-09-23T06:23:26;3.17;;;1.88;;
3601;SDS011;1815;50.950;6.920;2022-09-23T06:25:52;3.20;;;2.38;;
3601;SDS011;1815;50.950;6.920;2022-09-23T06:28:18;2.30;;;1.80;;
3601;SDS011;1815;50.950;6.920;2022-09-23T06:30:44;3.40;;;2.07;;
3601;SDS011;1815;50.950;6.920;2022-09-23T06:33:10;4.90;;;1.90;;
3601;SDS011;1815;50.950;6.920;2022-09-23T06:35:35;2.77;;;1.80;;
3601;SDS011;1815;50.950;6.920;2022-09-23T06:38:02;2.20;;;1.60;;
3601;SDS011;1815;50.950;6.920;2022-09-23T06:40:28;2.10;;;1.65;;
3601;SDS011;1815;50.950;6.920;2022-09-23T06:42:56;4.70;;;1.85;;
3601;SDS011;1815;50.950;6.920;2022-09-23T06:45:23;6.10;;;2.50;;
3601;SDS011;1815;50.950;6.920;2022-09-23T06:47:52;3.93;;;1.77;;
3601;SDS011;1815;50.950;6.920;2022-09-23T06:50:20;3.17;;;1.52;;
3601;SDS011;1815;50.950;6.920;2022-09-23T06:52:53;3.40;;;1.35;;
3601;SDS011;1815;50.950;6.920;2022-09-23T06:55:23;4.03;;;1.90;;
3601;SDS011;1815;50.950;6.920;2022-09-23T06:57:52;2.95;;;1.50;;
3601;SDS011;1815;50.950;6.920;2022-09-23T07:00:19;2.05;;;1.30;;
3601;SDS011;1815;50.950;6.920;2022-09-23T07:02:45;4.25;;;1.80;;
3601;SDS011;1815;50.950;6.920;2022-09-23T07:05:11;2.77;;;1.80;;
3601;SDS011;1815;50.950;6.920;2022-09-23T07:07:37;4.85;;;2.20;;
3601;SDS011;1815;50.950;6.920;2022-09-23T07:10:04;4.10;;;2.07;;
3601;SDS011;1815;50.950;6.920;2022-09-23T07:12:31;3.15;;;1.67;;
3601;SDS011;1815;50.950;6.920;2022-09-23T07:14:57;2.63;;;1.58;;
3601;SDS011;1815;50.950;6.920;2022-09-23T07:17:23;2.47;;;1.80;;
3601;SDS011;1815;50.950;6.920;2022-09-23T07:19:49;5.57;;;1.73;;
3601;SDS011;1815;50.950;6.920;2022-09-23T07:22:22;2.10;;;1.40;;
3601;SDS011;1815;50.950;6.920;2022-09-23T07:24:50;3.13;;;1.50;;
3601;SDS011;1815;50.950;6.920;2022-09-23T07:27:18;4.77;;;1.77;;
3601;SDS011;1815;50.950;6.920;2022-09-23T07:29:44;2.33;;;1.20;;
3601;SDS011;1815;50.950;6.920;2022-09-23T07:32:14;1.80;;;1.00;;
3601;SDS011;1815;50.950;6.920;2022-09-23T07:34:40;4.10;;;1.30;;
3601;SDS011;1815;50.950;6.920;2022-09-23T07:37:07;2.00;;;1.10;;
3601;SDS011;1815;50.950;6.920;2022-09-23T07:39:33;2.30;;;1.33;;
3601;SDS011;1815;50.950;6.920;2022-09-23T07:42:01;5.70;;;1.40;;
3601;SDS011;1815;50.950;6.920;2022-09-23T07:44:29;4.33;;;1.00;;
3601;SDS011;1815;50.950;6.920;2022-09-23T07:46:56;3.30;;;1.50;;
3601;SDS011;1815;50.950;6.920;2022-09-23T07:49:23;2.67;;;1.37;;
3601;SDS011;1815;50.950;6.920;2022-09-23T07:51:49;3.63;;;1.10;;
3601;SDS011;1815;50.950;6.920;2022-09-23T07:54:16;2.73;;;1.20;;
3601;SDS011;1815;50.950;6.920;2022-09-23T07:56:43;5.00;;;1.60;;
3601;SDS011;1815;50.950;6.920;2022-09-23T07:59:16;2.03;;;1.27;;
3601;SDS011;1815;50.950;6.920;2022-09-23T08:01:43;3.40;;;1.20;;
3601;SDS011;1815;50.950;6.920;2022-09-23T08:04:13;4.20;;;1.30;;
3601;SDS011;1815;50.950;6.920;2022-09-23T08:06:48;1.90;;;1.07;;
3601;SDS011;1815;50.950;6.920;2022-09-23T08:09:16;3.20;;;1.40;;
3601;SDS011;1815;50.950;6.920;2022-09-23T08:11:43;3.83;;;1.50;;
3601;SDS011;1815;50.950;6.920;2022-09-23T08:14:10;2.43;;;1.50;;
3601;SDS011;1815;50.950;6.920;2022-09-23T08:16:38;4.93;;;1.40;;
3601;SDS011;1815;50.950;6.920;2022-09-23T08:19:04;3.23;;;1.20;;
3601;SDS011;1815;50.950;6.920;2022-09-23T08:21:31;6.33;;;1.50;;
3601;SDS011;1815;50.950;6.920;2022-09-23T08:23:57;4.40;;;1.40;;
3601;SDS011;1815;50.950;6.920;2022-09-23T08:26:22;5.20;;;3.33;;
3601;SDS011;1815;50.950;6.920;2022-09-23T08:28:49;1.87;;;1.30;;
3601;SDS011;1815;50.950;6.920;2022-09-23T08:31:21;3.27;;;0.90;;
3601;SDS011;1815;50.950;6.920;2022-09-23T08:33:52;2.07;;;1.07;;
3601;SDS011;1815;50.950;6.920;2022-09-23T08:36:19;5.10;;;1.37;;
3601;SDS011;1815;50.950;6.920;2022-09-23T08:38:45;3.00;;;1.30;;
3601;SDS011;1815;50.950;6.920;2022-09-23T08:44:12;3.47;;;1.30;;
3601;SDS011;1815;50.950;6.920;2022-09-23T08:47:06;4.50;;;1.30;;
3601;SDS011;1815;50.950;6.920;2022-09-23T08:49:44;3.70;;;1.50;;
3601;SDS011;1815;50.950;6.920;2022-09-23T08:54:58;2.03;;;1.43;;
3601;SDS011;1815;50.950;6.920;2022-09-23T08:57:29;3.37;;;1.60;;
3601;SDS011;1815;50.950;6.920;2022-09-23T09:00:12;3.27;;;1.60;;
3601;SDS011;1815;50.950;6.920;2022-09-23T09:02:49;4.17;;;1.90;;
3601;SDS011;1815;50.950;6.920;2022-09-23T09:05:16;4.17;;;1.97;;
3601;SDS011;1815;50.950;6.920;2022-09-23T09:07:49;2.90;;;1.63;;
3601;SDS011;1815;50.950;6.920;2022-09-23T09:10:19;2.67;;;1.67;;
3601;SDS011;1815;50.950;6.920;2022-09-23T09:13:03;4.43;;;1.50;;
3601;SDS011;1815;50.950;6.920;2022-09-23T09:15:31;3.00;;;1.23;;
3601;SDS011;1815;50.950;6.920;2022-09-23T09:18:17;5.07;;;1.23;;
3601;SDS011;1815;50.950;6.920;2022-09-23T09:20:54;2.80;;;1.60;;
3601;SDS011;1815;50.950;6.920;2022-09-23T09:23:31;6.53;;;1.90;;
3601;SDS011;1815;50.950;6.920;2022-09-23T09:26:02;3.50;;;1.10;;
3601;SDS011;1815;50.950;6.920;2022-09-23T09:28:36;2.20;;;1.40;;
3601;SDS011;1815;50.950;6.920;2022-09-23T09:33:52;3.67;;;1.70;;
3601;SDS011;1815;50.950;6.920;2022-09-23T09:38:57;2.37;;;1.30;;
3601;SDS011;1815;50.950;6.920;2022-09-23T09:41:24;4.50;;;1.50;;
3601;SDS011;1815;50.950;6.920;2022-09-23T09:43:52;5.50;;;1.80;;
3601;SDS011;1815;50.950;6.920;2022-09-23T09:52:10;4.07;;;1.30;;
3601;SDS011;1815;50.950;6.920;2022-09-23T09:54:37;2.00;;;1.40;;
3601;SDS011;1815;50.950;6.920;2022-09-23T09:57:04;3.30;;;1.40;;
3601;SDS011;1815;50.950;6.920;2022-09-23T09:59:34;4.10;;;1.30;;
3601;SDS011;1815;50.950;6.920;2022-09-23T10:02:40;4.57;;;1.50;;
3601;SDS011;1815;50.950;6.920;2022-09-23T10:05:02;1.80;;;0.90;;
3601;SDS011;1815;50.950;6.920;2022-09-23T10:07:31;2.40;;;1.40;;
3601;SDS011;1815;50.950;6.920;2022-09-23T10:10:10;2.40;;;1.00;;
3601;SDS011;1815;50.950;6.920;2022-09-23T10:12:46;2.23;;;0.83;;
3601;SDS011;1815;50.950;6.920;2022-09-23T10:15:29;2.63;;;1.30;;
3601;SDS011;1815;50.950;6.920;2022-09-23T10:17:58;2.60;;;1.07;;
3601;SDS011;1815;50.950;6.920;2022-09-23T10:20:35;2.93;;;1.20;;
3601;SDS011;1815;50.950;6.920;2022-09-23T10:23:07;2.23;;;1.00;;
3601;SDS011;1815;50.950;6.920;2022-09-23T10:25:38;6.90;;;1.10;;
3601;SDS011;1815;50.950;6.920;2022-09-23T10:28:28;2.20;;;1.00;;
3601;SDS011;1815;50.950;6.920;2022-09-23T10:31:02;1.90;;;1.10;;
3601;SDS011;1815;50.950;6.920;2022-09-23T10:33:29;2.77;;;1.40;;
3601;SDS011;1815;50.950;6.920;2022-09-23T10:35:55;3.40;;;1.17;;
3601;SDS011;1815;50.950;6.920;2022-09-23T10:38:22;2.83;;;1.60;;
3601;SDS011;1815;50.950;6.920;2022-09-23T10:40:49;5.10;;;1.50;;
3601;SDS011;1815;50.950;6.920;2022-09-23T10:49:48;1.70;;;1.20;;
3601;SDS011;1815;50.950;6.920;2022-09-23T11:20:36;2.30;;;1.00;;
3601;SDS011;1815;50.950;6.920;2022-09-23T11:37:11;2.93;;;1.10;;
3601;SDS011;1815;50.950;6.920;2022-09-23T11:39:54;2.90;;;1.20;;
3601;SDS011;1815;50.950;6.920;2022-09-23T11:42:27;2.23;;;0.90;;
3601;SDS011;1815;50.950;6.920;2022-09-23T11:44:57;2.03;;;1.00;;
3601;SDS011;1815;50.950;6.920;2022-09-23T11:47:46;2.13;;;1.10;;
3601;SDS011;1815;50.950;6.920;2022-09-23T11:50:21;1.90;;;1.20;;
3601;SDS011;1815;50.950;6.920;2022-09-23T11:53:00;3.43;;;0.90;;
3601;SDS011;1815;50.950;6.920;2022-09-23T11:55:28;2.43;;;1.43;;
3601;SDS011;1815;50.950;6.920;2022-09-23T11:58:10;2.40;;;0.87;;
3601;SDS011;1815;50.950;6.920;2022-09-23T12:00:44;3.00;;;1.40;;
3601;SDS011;1815;50.950;6.920;2022-09-23T12:03:30;4.13;;;1.47;;
3601;SDS011;1815;50.950;6.920;2022-09-23T12:06:05;4.60;;;1.67;;
3601;SDS011;1815;50.950;6.920;2022-09-23T12:08:38;2.50;;;1.30;;
3601;SDS011;1815;50.950;6.920;2022-09-23T12:21:49;2.40;;;0.77;;
3601;SDS011;1815;50.950;6.920;2022-09-23T12:24:46;2.00;;;0.90;;
3601;SDS011;1815;50.950;6.920;2022-09-23T12:27:22;2.80;;;0.80;;
3601;SDS011;1815;50.950;6.920;2022-09-23T12:29:57;2.20;;;1.00;;
3601;SDS011;1815;50.950;6.920;2022-09-23T12:32:26;2.23;;;1.10;;
3601;SDS011;1815;50.950;6.920;2022-09-23T12:34:52;1.63;;;0.90;;
3601;SDS011;1815;50.950;6.920;2022-09-23T12:37:35;2.60;;;1.00;;
3601;SDS011;1815;50.950;6.920;2022-09-23T12:40:36;1.93;;;0.90;;
3601;SDS011;1815;50.950;6.920;2022-09-23T12:42:59;1.67;;;0.90;;
3601;SDS011;1815;50.950;6.920;2022-09-23T12:47:57;1.50;;;0.80;;
3601;SDS011;1815;50.950;6.920;2022-09-23T12:55:57;2.23;;;0.77;;
3601;SDS011;1815;50.950;6.920;2022-09-23T12:59:08;2.43;;;1.00;;
3601;SDS011;1815;50.950;6.920;2022-09-23T13:03:48;2.73;;;0.90;;
3601;SDS011;1815;50.950;6.920;2022-09-23T13:06:52;1.90;;;1.00;;
3601;SDS011;1815;50.950;6.920;2022-09-23T13:09:30;2.00;;;0.87;;
3601;SDS011;1815;50.950;6.920;2022-09-23T13:12:01;2.07;;;1.00;;
3601;SDS011;1815;50.950;6.920;2022-09-23T13:14:30;2.20;;;1.67;;
3601;SDS011;1815;50.950;6.920;2022-09-23T13:16:57;3.30;;;1.00;;
3601;SDS011;1815;50.950;6.920;2022-09-23T13:29:43;4.33;;;1.70;;
3601;SDS011;1815;50.950;6.920;2022-09-23T13:32:33;4.33;;;1.47;;
3601;SDS011;1815;50.950;6.920;2022-09-23T13:35:13;2.57;;;1.10;;
3601;SDS011;1815;50.950;6.920;2022-09-23T13:37:44;3.00;;;1.00;;
3601;SDS011;1815;50.950;6.920;2022-09-23T13:43:01;2.33;;;1.10;;
3601;SDS011;1815;50.950;6.920;2022-09-23T13:45:29;4.80;;;1.00;;
3601;SDS011;1815;50.950;6.920;2022-09-23T13:47:59;3.17;;;1.20;;
3601;SDS011;1815;50.950;6.920;2022-09-23T13:50:28;3.03;;;1.10;;
3601;SDS011;1815;50.950;6.920;2022-09-23T13:52:55;2.30;;;1.10;;
3601;SDS011;1815;50.950;6.920;2022-09-23T13:55:29;4.00;;;1.10;;
3601;SDS011;1815;50.950;6.920;2022-09-23T13:58:04;4.63;;;3.40;;
3601;SDS011;1815;50.950;6.920;2022-09-23T14:00:48;3.60;;;2.50;;
3601;SDS011;1815;50.950;6.920;2022-09-23T14:05:49;3.17;;;1.33;;
3601;SDS011;1815;50.950;6.920;2022-09-23T14:08:16;4.33;;;1.67;;
3601;SDS011;1815;50.950;6.920;2022-09-23T14:10:43;2.90;;;1.30;;
3601;SDS011;1815;50.950;6.920;2022-09-23T14:13:14;3.60;;;1.40;;
3601;SDS011;1815;50.950;6.920;2022-09-23T14:15:49;2.30;;;1.10;;
3601;SDS011;1815;50.950;6.920;2022-09-23T14:18:20;6.47;;;1.10;;
3601;SDS011;1815;50.950;6.920;2022-09-23T14:20:54;5.63;;;1.73;;
3601;SDS011;1815;50.950;6.920;2022-09-23T14:23:20;5.43;;;1.90;;
3601;SDS011;1815;50.950;6.920;2022-09-23T14:25:46;3.27;;;1.70;;
3601;SDS011;1815;50.950;6.920;2022-09-23T14:28:17;4.43;;;1.50;;
3601;SDS011;1815;50.950;6.920;2022-09-23T14:30:44;2.77;;;1.40;;
3601;SDS011;1815;50.950;6.920;2022-09-23T14:33:22;2.77;;;1.10;;
3601;SDS011;1815;50.950;6.920;2022-09-23T14:36:04;4.00;;;1.00;;
3601;SDS011;1815;50.950;6.920;2022-09-23T14:41:39;3.40;;;1.97;;
3601;SDS011;1815;50.950;6.920;2022-09-23T14:44:14;5.10;;;2.10;;
3601;SDS011;1815;50.950;6.920;2022-09-23T14:46:50;4.60;;;2.30;;
3601;SDS011;1815;50.950;6.920;2022-09-23T14:49:21;3.87;;;2.33;;
3601;SDS011;1815;50.950;6.920;2022-09-23T14:51:49;2.90;;;2.03;;
3601;SDS011;1815;50.950;6.920;2022-09-23T14:56:56;2.37;;;1.20;;
3601;SDS011;1815;50.950;6.920;2022-09-23T14:59:24;6.20;;;1.20;;
3601;SDS011;1815;50.950;6.920;2022-09-23T15:02:01;4.60;;;2.00;;
3601;SDS011;1815;50.950;6.920;2022-09-23T15:04:48;7.30;;;2.53;;
3601;SDS011;1815;50.950;6.920;2022-09-23T15:07:17;3.60;;;1.73;;
3601;SDS011;1815;50.950;6.920;2022-09-23T15:09:44;3.07;;;1.20;;
3601;SDS011;1815;50.950;6.920;2022-09-23T15:12:11;1.90;;;1.00;;
3601;SDS011;1815;50.950;6.920;2022-09-23T15:14:41;3.07;;;1.10;;
3601;SDS011;1815;50.950;6.920;2022-09-23T15:17:26;2.10;;;0.80;;
3601;SDS011;1815;50.950;6.920;2022-09-23T15:19:59;3.50;;;0.87;;
3601;SDS011;1815;50.950;6.920;2022-09-23T15:22:28;2.77;;;0.90;;
3601;SDS011;1815;50.950;6.920;2022-09-23T15:24:54;1.90;;;1.00;;
3601;SDS011;1815;50.950;6.920;2022-09-23T15:27:38;2.00;;;1.00;;
3601;SDS011;1815;50.950;6.920;2022-09-23T15:30:15;2.00;;;1.20;;
3601;SDS011;1815;50.950;6.920;2022-09-23T15:32:45;2.10;;;0.80;;
3601;SDS011;1815;50.950;6.920;2022-09-23T15:35:12;5.90;;;1.23;;
3601;SDS011;1815;50.950;6.920;2022-09-23T15:37:40;4.30;;;2.00;;
3601;SDS011;1815;50.950;6.920;2022-09-23T15:40:13;4.23;;;2.00;;
3601;SDS011;1815;50.950;6.920;2022-09-23T15:42:44;4.40;;;2.30;;
3601;SDS011;1815;50.950;6.920;2022-09-23T15:45:16;4.60;;;1.90;;
3601;SDS011;1815;50.950;6.920;2022-09-23T15:47:47;2.77;;;1.17;;
3601;SDS011;1815;50.950;6.920;2022-09-23T15:50:14;4.20;;;1.40;;
3601;SDS011;1815;50.950;6.920;2022-09-23T15:52:41;5.63;;;1.37;;
3601;SDS011;1815;50.950;6.920;2022-09-23T15:55:18;1.73;;;0.90;;
3601;SDS011;1815;50.950;6.920;2022-09-23T15:57:48;3.67;;;1.20;;
3601;SDS011;1815;50.950;6.920;2022-09-23T16:00:14;2.67;;;1.00;;
3601;SDS011;1815;50.950;6.920;2022-09-23T16:02:41;3.40;;;1.70;;
3601;SDS011;1815;50.950;6.920;2022-09-23T16:05:15;4.90;;;1.80;;
3601;SDS011;1815;50.950;6.920;2022-09-23T16:07:42;2.80;;;1.40;;
3601;SDS011;1815;50.950;6.920;2022-09-23T16:10:12;3.13;;;1.10;;
3601;SDS011;1815;50.950;6.920;2022-09-23T16:12:39;7.63;;;1.43;;
3601;SDS011;1815;50.950;6.920;2022-09-23T16:15:09;2.57;;;0.93;;
3601;SDS011;1815;50.950;6.920;2022-09-23T16:17:41;2.97;;;1.10;;
3601;SDS011;1815;50.950;6.920;2022-09-23T16:20:09;2.00;;;1.00;;
3601;SDS011;1815;50.950;6.920;2022-09-23T16:22:35;4.77;;;1.20;;
3601;SDS011;1815;50.950;6.920;2022-09-23T16:25:02;2.60;;;0.90;;
3601;SDS011;1815;50.950;6.920;2022-09-23T16:27:30;2.27;;;0.80;;
3601;SDS011;1815;50.950;6.920;2022-09-23T16:29:55;4.70;;;0.90;;
3601;SDS011;1815;50.950;6.920;2022-09-23T16:32:21;1.77;;;0.90;;
3601;SDS011;1815;50.950;6.920;2022-09-23T16:34:48;2.70;;;1.30;;
3601;SDS011;1815;50.950;6.920;2022-09-23T16:37:14;3.73;;;1.47;;
3601;SDS011;1815;50.950;6.920;2022-09-23T16:39:43;2.93;;;1.17;;
3601;SDS011;1815;50.950;6.920;2022-09-23T16:42:09;2.23;;;0.90;;
3601;SDS011;1815;50.950;6.920;2022-09-23T16:44:35;1.93;;;1.13;;
3601;SDS011;1815;50.950;6.920;2022-09-23T16:47:01;2.53;;;1.00;;
3601;SDS011;1815;50.950;6.920;2022-09-23T16:49:27;3.57;;;1.57;;
3601;SDS011;1815;50.950;6.920;2022-09-23T16:51:53;2.80;;;1.03;;
3601;SDS011;1815;50.950;6.920;2022-09-23T16:54:18;2.60;;;1.00;;
3601;SDS011;1815;50.950;6.920;2022-09-23T16:56:45;4.63;;;1.20;;
3601;SDS011;1815;50.950;6.920;2022-09-23T16:59:14;2.03;;;1.10;;
3601;SDS011;1815;50.950;6.920;2022-09-23T17:01:40;3.87;;;1.00;;
3601;SDS011;1815;50.950;6.920;2022-09-23T17:04:26;2.57;;;1.10;;
3601;SDS011;1815;50.950;6.920;2022-09-23T17:06:52;2.23;;;1.10;;
3601;SDS011;1815;50.950;6.920;2022-09-23T17:09:22;6.93;;;1.60;;
3601;SDS011;1815;50.950;6.920;2022-09-23T17:11:54;2.97;;;1.43;;
3601;SDS011;1815;50.950;6.920;2022-09-23T17:14:29;3.27;;;1.20;;
3601;SDS011;1815;50.950;6.920;2022-09-23T17:16:57;2.13;;;1.10;;
3601;SDS011;1815;50.950;6.920;2022-09-23T17:19:23;2.93;;;2.00;;
3601;SDS011;1815;50.950;6.920;2022-09-23T17:21:49;2.87;;;1.80;;
3601;SDS011;1815;50.950;6.920;2022-09-23T17:24:14;4.23;;;1.33;;
3601;SDS011;1815;50.950;6.920;2022-09-23T17:26:40;3.40;;;1.70;;
3601;SDS011;1815;50.950;6.920;2022-09-23T17:29:08;3.60;;;1.60;;
3601;SDS011;1815;50.950;6.920;2022-09-23T17:31:33;4.63;;;2.20;;
3601;SDS011;1815;50.950;6.920;2022-09-23T17:34:00;3.73;;;2.13;;
3601;SDS011;1815;50.950;6.920;2022-09-23T17:36:26;3.57;;;2.07;;
3601;SDS011;1815;50.950;6.920;2022-09-23T17:38:52;4.27;;;1.73;;
3601;SDS011;1815;50.950;6.920;2022-09-23T17:41:18;3.90;;;1.90;;
3601;SDS011;1815;50.950;6.920;2022-09-23T17:43:44;5.33;;;2.70;;
3601;SDS011;1815;50.950;6.920;2022-09-23T17:46:12;4.53;;;2.87;;
3601;SDS011;1815;50.950;6.920;2022-09-23T17:48:42;8.13;;;2.50;;
3601;SDS011;1815;50.950;6.920;2022-09-23T17:51:09;5.60;;;2.53;;
3601;SDS011;1815;50.950;6.920;2022-09-23T17:53:40;4.87;;;2.10;;
3601;SDS011;1815;50.950;6.920;2022-09-23T17:56:10;4.83;;;2.47;;
3601;SDS011;1815;50.950;6.920;2022-09-23T17:58:36;7.37;;;2.97;;
3601;SDS011;1815;50.950;6.920;2022-09-23T18:01:03;3.83;;;2.60;;
3601;SDS011;1815;50.950;6.920;2022-09-23T18:03:32;5.30;;;2.73;;
3601;SDS011;1815;50.950;6.920;2022-09-23T18:06:16;4.43;;;2.70;;
3601;SDS011;1815;50.950;6.920;2022-09-23T18:08:44;4.00;;;2.43;;
3601;SDS011;1815;50.950;6.920;2022-09-23T18:13:54;6.50;;;3.40;;
3601;SDS011;1815;50.950;6.920;2022-09-23T18:16:37;5.77;;;3.00;;